sensor_id;sensor_type;location;lat;lon;timestamp;pressure;altitude;pressure_sealevel;temperature;humidity
44734;BME280;30462;52.446;-1.930;2023-03-31T00:00:18;97742.37109;;;;
44734;BME280;30462;52.446;-1.930;2023-03-31T00:01:18;97733.24609;;;;
44734;BME280;30462;52.446;-1.930;2023-03-31T00:02:18;97729.33984;;;;
44734;BME280;30462;52.446;-1.930;2023-03-31T00:03:18;97731.33984;;;;
44734;BME280;30462;52.446;-1.930;2023-03-31T00:04:18;97724.53516;;;;
44734;BME280;30462;52.446;-1.930;2023-03-31T00:05:18;97723.27344;;;;
44734;BME280;30462;52.446;-1.930;2023-03-31T00:06:18;97717.09375;;;;
44734;BME280;30462;52.446;-1.930;2023-03-31T00:07:18;97716.33594;;;;
44734;BME280;30462;52.446;-1.930;2023-03-31T00:08:17;97711.64453;;;;
44734;BME280;30462;52.446;-1.930;2023-03-31T00:09:17;97708.34375;;;;
44734;BME280;30462;52.446;-1.930;2023-03-31T00:10:18;97703.03906;;;;
44734;BME280;30462;52.446;-1.930;2023-03-31T00:11:18;97702.89453;;;;
44734;BME280;30462;52.446;-1.930;2023-03-31T00:12:18;97699.86328;;;;
44734;BME280;30462;52.446;-1.930;2023-03-31T00:13:18;97700.70703;;;;
44734;BME280;30462;52.446;-1.930;2023-03-31T00:14:19;97689.46094;;;;
44734;BME280;30462;52.446;-1.930;2023-03-31T00:15:18;97691.83594;;;;
44734;BME280;30462;52.446;-1.930;2023-03-31T00:16:18;97681.05469;;;;
44734;BME280;30462;52.446;-1.930;2023-03-31T00:17:18;97687.85156;;;;
44734;BME280;30462;52.446;-1.930;2023-03-31T00:18:18;97677.25781;;;;
44734;BME280;30462;52.446;-1.930;2023-03-31T00:19:18;97669.32031;;;;
44734;BME280;30462;52.446;-1.930;2023-03-31T00:20:18;97665.41016;;;;
44734;BME280;30462;52.446;-1.930;2023-03-31T00:21:19;97662.57813;;;;
44734;BME280;30462;52.446;-1.930;2023-03-31T00:22:18;97655.19922;;;;
44734;BME280;30462;52.446;-1.930;2023-03-31T00:23:18;97654.5625;;;;
44734;BME280;30462;52.446;-1.930;2023-03-31T00:24:18;97649.85156;;;;
44734;BME280;30462;52.446;-1.930;2023-03-31T00:25:18;97642.01563;;;;
44734;BME280;30462;52.446;-1.930;2023-03-31T00:26:18;97640.25;;;;
44734;BME280;30462;52.446;-1.930;2023-03-31T00:27:18;97637.37109;;;;
44734;BME280;30462;52.446;-1.930;2023-03-31T00:28:18;97631.91797;;;;
44734;BME280;30462;52.446;-1.930;2023-03-31T00:29:18;97628.82813;;;;
44734;BME280;30462;52.446;-1.930;2023-03-31T00:30:18;97628.26172;;;;
44734;BME280;30462;52.446;-1.930;2023-03-31T00:31:18;97618.16406;;;;
44734;BME280;30462;52.446;-1.930;2023-03-31T00:32:18;97621.99219;;;;
44734;BME280;30462;52.446;-1.930;2023-03-31T00:33:18;97613.5625;;;;
44734;BME280;30462;52.446;-1.930;2023-03-31T00:34:18;97607.42969;;;;
44734;BME280;30462;52.446;-1.930;2023-03-31T00:35:18;97601.88281;;;;
44734;BME280;30462;52.446;-1.930;2023-03-31T00:36:18;97602.27734;;;;
44734;BME280;30462;52.446;-1.930;2023-03-31T00:37:18;97592.73828;;;;
44734;BME280;30462;52.446;-1.930;2023-03-31T00:38:18;97591.70703;;;;
44734;BME280;30462;52.446;-1.930;2023-03-31T00:39:18;97588.10547;;;;
44734;BME280;30462;52.446;-1.930;2023-03-31T00:40:18;97580.85156;;;;
44734;BME280;30462;52.446;-1.930;2023-03-31T00:41:18;97577.63672;;;;
44734;BME280;30462;52.446;-1.930;2023-03-31T00:42:18;97571.26563;;;;
44734;BME280;30462;52.446;-1.930;2023-03-31T00:44:19;97569.86328;;;;
44734;BME280;30462;52.446;-1.930;2023-03-31T00:46:20;97557.79297;;;;
44734;BME280;30462;52.446;-1.930;2023-03-31T00:47:17;97560.49609;;;;
44734;BME280;30462;52.446;-1.930;2023-03-31T00:48:18;97551.39453;;;;
44734;BME280;30462;52.446;-1.930;2023-03-31T00:49:20;97542.16406;;;;
44734;BME280;30462;52.446;-1.930;2023-03-31T00:50:19;97547.06641;;;;
44734;BME280;30462;52.446;-1.930;2023-03-31T00:51:18;97548.33203;;;;
44734;BME280;30462;52.446;-1.930;2023-03-31T00:52:21;97539.66406;;;;
44734;BME280;30462;52.446;-1.930;2023-03-31T00:53:19;97536.25;;;;
44734;BME280;30462;52.446;-1.930;2023-03-31T00:54:18;97532.98828;;;;
44734;BME280;30462;52.446;-1.930;2023-03-31T00:55:21;97531.875;;;;
44734;BME280;30462;52.446;-1.930;2023-03-31T00:56:17;97526.60938;;;;
44734;BME280;30462;52.446;-1.930;2023-03-31T00:57:18;97523.58594;;;;
44734;BME280;30462;52.446;-1.930;2023-03-31T00:58:18;97522.32813;;;;
44734;BME280;30462;52.446;-1.930;2023-03-31T00:59:18;97520.47656;;;;
44734;BME280;30462;52.446;-1.930;2023-03-31T01:00:18;97518.33594;;;;
44734;BME280;30462;52.446;-1.930;2023-03-31T01:01:18;97511.63281;;;;
44734;BME280;30462;52.446;-1.930;2023-03-31T01:02:18;97507.42969;;;;
44734;BME280;30462;52.446;-1.930;2023-03-31T01:03:18;97508.8125;;;;
44734;BME280;30462;52.446;-1.930;2023-03-31T01:04:18;97498.63281;;;;
44734;BME280;30462;52.446;-1.930;2023-03-31T01:05:18;97494.17578;;;;
44734;BME280;30462;52.446;-1.930;2023-03-31T01:06:18;97493.30078;;;;
44734;BME280;30462;52.446;-1.930;2023-03-31T01:07:21;97487.17578;;;;
44734;BME280;30462;52.446;-1.930;2023-03-31T01:08:18;97481.16406;;;;
44734;BME280;30462;52.446;-1.930;2023-03-31T01:09:18;97479.17969;;;;
44734;BME280;30462;52.446;-1.930;2023-03-31T01:10:18;97474.95703;;;;
44734;BME280;30462;52.446;-1.930;2023-03-31T01:11:19;97473.40625;;;;
44734;BME280;30462;52.446;-1.930;2023-03-31T01:12:18;97466.07813;;;;
44734;BME280;30462;52.446;-1.930;2023-03-31T01:13:19;97465.27344;;;;
44734;BME280;30462;52.446;-1.930;2023-03-31T01:14:18;97456.42969;;;;
44734;BME280;30462;52.446;-1.930;2023-03-31T01:15:17;97465.12109;;;;
44734;BME280;30462;52.446;-1.930;2023-03-31T01:16:18;97454.42969;;;;
44734;BME280;30462;52.446;-1.930;2023-03-31T01:17:19;97448.00391;;;;
44734;BME280;30462;52.446;-1.930;2023-03-31T01:18:18;97442.61719;;;;
44734;BME280;30462;52.446;-1.930;2023-03-31T01:19:19;97440.94922;;;;
44734;BME280;30462;52.446;-1.930;2023-03-31T01:20:23;97431.46484;;;;
44734;BME280;30462;52.446;-1.930;2023-03-31T01:42:18;97358.32422;;;;
44734;BME280;30462;52.446;-1.930;2023-03-31T01:43:21;97352.23828;;;;
44734;BME280;30462;52.446;-1.930;2023-03-31T01:44:21;97349.35156;;;;
44734;BME280;30462;52.446;-1.930;2023-03-31T01:45:21;97347.80859;;;;
44734;BME280;30462;52.446;-1.930;2023-03-31T01:46:20;97341.82813;;;;
44734;BME280;30462;52.446;-1.930;2023-03-31T01:47:18;97335.66406;;;;
44734;BME280;30462;52.446;-1.930;2023-03-31T01:48:19;97338.55859;;;;
44734;BME280;30462;52.446;-1.930;2023-03-31T01:49:19;97333.49609;;;;
44734;BME280;30462;52.446;-1.930;2023-03-31T01:50:22;97329.57031;;;;
44734;BME280;30462;52.446;-1.930;2023-03-31T01:51:18;97323.01563;;;;
44734;BME280;30462;52.446;-1.930;2023-03-31T01:52:19;97318.60156;;;;
44734;BME280;30462;52.446;-1.930;2023-03-31T01:53:19;97316.20313;;;;
44734;BME280;30462;52.446;-1.930;2023-03-31T01:54:18;97316.60547;;;;
44734;BME280;30462;52.446;-1.930;2023-03-31T01:55:19;97313.77344;;;;
44734;BME280;30462;52.446;-1.930;2023-03-31T01:56:20;97300.53906;;;;
44734;BME280;30462;52.446;-1.930;2023-03-31T01:57:18;97304.03125;;;;
44734;BME280;30462;52.446;-1.930;2023-03-31T01:58:20;97303.01953;;;;
44734;BME280;30462;52.446;-1.930;2023-03-31T01:59:20;97300.42969;;;;
44734;BME280;30462;52.446;-1.930;2023-03-31T02:00:20;97297.34766;;;;
44734;BME280;30462;52.446;-1.930;2023-03-31T02:01:19;97298.87109;;;;
44734;BME280;30462;52.446;-1.930;2023-03-31T02:02:20;97288.57031;;;;
44734;BME280;30462;52.446;-1.930;2023-03-31T02:03:20;97287.51563;;;;
44734;BME280;30462;52.446;-1.930;2023-03-31T02:04:20;97279.76172;;;;
44734;BME280;30462;52.446;-1.930;2023-03-31T02:05:19;97278.92188;;;;
44734;BME280;30462;52.446;-1.930;2023-03-31T02:06:19;97277.05859;;;;
44734;BME280;30462;52.446;-1.930;2023-03-31T02:07:19;97267.39063;;;;
44734;BME280;30462;52.446;-1.930;2023-03-31T02:08:19;97267.37109;;;;
44734;BME280;30462;52.446;-1.930;2023-03-31T02:09:18;97257.55859;;;;
44734;BME280;30462;52.446;-1.930;2023-03-31T02:10:18;97258.90625;;;;
44734;BME280;30462;52.446;-1.930;2023-03-31T02:11:18;97253.16016;;;;
44734;BME280;30462;52.446;-1.930;2023-03-31T02:12:18;97253.26953;;;;
44734;BME280;30462;52.446;-1.930;2023-03-31T02:13:19;97251.85156;;;;
44734;BME280;30462;52.446;-1.930;2023-03-31T02:14:18;97249.30859;;;;
44734;BME280;30462;52.446;-1.930;2023-03-31T02:15:19;97245.32422;;;;
44734;BME280;30462;52.446;-1.930;2023-03-31T02:16:19;97240.14453;;;;
44734;BME280;30462;52.446;-1.930;2023-03-31T02:17:19;97245.11328;;;;
44734;BME280;30462;52.446;-1.930;2023-03-31T02:18:19;97237.45313;;;;
44734;BME280;30462;52.446;-1.930;2023-03-31T02:19:18;97232.58984;;;;
44734;BME280;30462;52.446;-1.930;2023-03-31T02:20:19;97229.77344;;;;
44734;BME280;30462;52.446;-1.930;2023-03-31T02:21:18;97228.38672;;;;
44734;BME280;30462;52.446;-1.930;2023-03-31T02:22:17;97220.25781;;;;
44734;BME280;30462;52.446;-1.930;2023-03-31T02:23:19;97218.91797;;;;
44734;BME280;30462;52.446;-1.930;2023-03-31T02:24:18;97216.41797;;;;
44734;BME280;30462;52.446;-1.930;2023-03-31T02:25:19;97214.59766;;;;
44734;BME280;30462;52.446;-1.930;2023-03-31T02:26:19;97209.4375;;;;
44734;BME280;30462;52.446;-1.930;2023-03-31T02:27:19;97206.94141;;;;
44734;BME280;30462;52.446;-1.930;2023-03-31T02:28:19;97204.18359;;;;
44734;BME280;30462;52.446;-1.930;2023-03-31T02:29:18;97204.10156;;;;
44734;BME280;30462;52.446;-1.930;2023-03-31T02:30:18;97199.92969;;;;
44734;BME280;30462;52.446;-1.930;2023-03-31T02:32:20;97192.70313;;;;
44734;BME280;30462;52.446;-1.930;2023-03-31T02:33:18;97191.19141;;;;
44734;BME280;30462;52.446;-1.930;2023-03-31T02:34:18;97190.01953;;;;
44734;BME280;30462;52.446;-1.930;2023-03-31T02:35:18;97187.70703;;;;
44734;BME280;30462;52.446;-1.930;2023-03-31T02:36:17;97183.43359;;;;
44734;BME280;30462;52.446;-1.930;2023-03-31T02:37:18;97182.09766;;;;
44734;BME280;30462;52.446;-1.930;2023-03-31T02:38:18;97177.33203;;;;
44734;BME280;30462;52.446;-1.930;2023-03-31T02:39:20;97174.82031;;;;
44734;BME280;30462;52.446;-1.930;2023-03-31T02:40:19;97168.69531;;;;
44734;BME280;30462;52.446;-1.930;2023-03-31T02:41:18;97162.82422;;;;
44734;BME280;30462;52.446;-1.930;2023-03-31T02:42:18;97164.01953;;;;
44734;BME280;30462;52.446;-1.930;2023-03-31T02:43:18;97161.32813;;;;
44734;BME280;30462;52.446;-1.930;2023-03-31T02:44:18;97153.08594;;;;
44734;BME280;30462;52.446;-1.930;2023-03-31T02:46:18;97149.28906;;;;
44734;BME280;30462;52.446;-1.930;2023-03-31T02:47:18;97145.71094;;;;
44734;BME280;30462;52.446;-1.930;2023-03-31T02:48:22;97140.31641;;;;
44734;BME280;30462;52.446;-1.930;2023-03-31T02:49:18;97143.875;;;;
44734;BME280;30462;52.446;-1.930;2023-03-31T02:50:18;97137.52734;;;;
44734;BME280;30462;52.446;-1.930;2023-03-31T02:53:22;97125.56641;;;;
44734;BME280;30462;52.446;-1.930;2023-03-31T02:57:20;97118.58203;;;;
44734;BME280;30462;52.446;-1.930;2023-03-31T03:00:25;97108.78516;;;;
44734;BME280;30462;52.446;-1.930;2023-03-31T03:02:21;97103.84375;;;;
44734;BME280;30462;52.446;-1.930;2023-03-31T03:06:20;97090.16406;;;;
44734;BME280;30462;52.446;-1.930;2023-03-31T03:07:19;97087.53516;;;;
44734;BME280;30462;52.446;-1.930;2023-03-31T03:08:24;97084.83594;;;;
44734;BME280;30462;52.446;-1.930;2023-03-31T03:10:19;97080.86719;;;;
44734;BME280;30462;52.446;-1.930;2023-03-31T03:11:19;97075.83203;;;;
44734;BME280;30462;52.446;-1.930;2023-03-31T03:12:20;97075.63281;;;;
44734;BME280;30462;52.446;-1.930;2023-03-31T03:13:21;97075.55859;;;;
44734;BME280;30462;52.446;-1.930;2023-03-31T03:14:22;97076.27344;;;;
44734;BME280;30462;52.446;-1.930;2023-03-31T03:15:20;97069.6875;;;;
44734;BME280;30462;52.446;-1.930;2023-03-31T03:16:18;97065.29688;;;;
44734;BME280;30462;52.446;-1.930;2023-03-31T03:17:20;97064.39453;;;;
44734;BME280;30462;52.446;-1.930;2023-03-31T03:18:18;97058.35156;;;;
44734;BME280;30462;52.446;-1.930;2023-03-31T03:19:18;97058.43359;;;;
44734;BME280;30462;52.446;-1.930;2023-03-31T03:20:19;97056.15234;;;;
44734;BME280;30462;52.446;-1.930;2023-03-31T03:21:18;97052.21875;;;;
44734;BME280;30462;52.446;-1.930;2023-03-31T03:22:18;97054.42188;;;;
44734;BME280;30462;52.446;-1.930;2023-03-31T03:23:18;97051.3125;;;;
44734;BME280;30462;52.446;-1.930;2023-03-31T03:24:18;97027.24219;;;;
44734;BME280;30462;52.446;-1.930;2023-03-31T03:25:18;97043.63281;;;;
44734;BME280;30462;52.446;-1.930;2023-03-31T03:26:18;97043.80078;;;;
44734;BME280;30462;52.446;-1.930;2023-03-31T03:27:18;97039.21875;;;;
44734;BME280;30462;52.446;-1.930;2023-03-31T03:28:18;97037.84766;;;;
44734;BME280;30462;52.446;-1.930;2023-03-31T03:29:18;97037.48828;;;;
44734;BME280;30462;52.446;-1.930;2023-03-31T03:30:18;97036.34766;;;;
44734;BME280;30462;52.446;-1.930;2023-03-31T03:31:18;97038.12109;;;;
44734;BME280;30462;52.446;-1.930;2023-03-31T03:32:18;97034.1875;;;;
44734;BME280;30462;52.446;-1.930;2023-03-31T03:33:18;97026.37109;;;;
44734;BME280;30462;52.446;-1.930;2023-03-31T03:34:18;97031.35938;;;;
44734;BME280;30462;52.446;-1.930;2023-03-31T03:35:18;97028.72656;;;;
44734;BME280;30462;52.446;-1.930;2023-03-31T03:36:18;97024.17578;;;;
44734;BME280;30462;52.446;-1.930;2023-03-31T03:37:18;97019.16797;;;;
44734;BME280;30462;52.446;-1.930;2023-03-31T03:38:18;97017.69531;;;;
44734;BME280;30462;52.446;-1.930;2023-03-31T03:39:18;97020.91406;;;;
44734;BME280;30462;52.446;-1.930;2023-03-31T03:40:17;97017.37891;;;;
44734;BME280;30462;52.446;-1.930;2023-03-31T03:41:18;97012.99609;;;;
44734;BME280;30462;52.446;-1.930;2023-03-31T03:42:19;97009.59375;;;;
44734;BME280;30462;52.446;-1.930;2023-03-31T03:43:18;97012.28516;;;;
44734;BME280;30462;52.446;-1.930;2023-03-31T03:44:18;97005.66016;;;;
44734;BME280;30462;52.446;-1.930;2023-03-31T03:45:17;97004.51172;;;;
44734;BME280;30462;52.446;-1.930;2023-03-31T03:46:18;96999.53516;;;;
44734;BME280;30462;52.446;-1.930;2023-03-31T03:47:18;96997.38672;;;;
44734;BME280;30462;52.446;-1.930;2023-03-31T03:48:18;96999.06641;;;;
44734;BME280;30462;52.446;-1.930;2023-03-31T03:49:18;96994.60938;;;;
44734;BME280;30462;52.446;-1.930;2023-03-31T03:50:17;96991.92188;;;;
44734;BME280;30462;52.446;-1.930;2023-03-31T03:51:18;96987.62891;;;;
44734;BME280;30462;52.446;-1.930;2023-03-31T03:52:18;96990.67578;;;;
44734;BME280;30462;52.446;-1.930;2023-03-31T03:53:18;96989.39453;;;;
44734;BME280;30462;52.446;-1.930;2023-03-31T03:54:18;96986.9375;;;;
44734;BME280;30462;52.446;-1.930;2023-03-31T03:55:18;96986.57813;;;;
44734;BME280;30462;52.446;-1.930;2023-03-31T03:56:18;96979.82813;;;;
44734;BME280;30462;52.446;-1.930;2023-03-31T03:57:18;96979.66406;;;;
44734;BME280;30462;52.446;-1.930;2023-03-31T03:58:18;96979.60547;;;;
44734;BME280;30462;52.446;-1.930;2023-03-31T03:59:18;96976.82031;;;;
44734;BME280;30462;52.446;-1.930;2023-03-31T04:00:18;96973.1875;;;;
44734;BME280;30462;52.446;-1.930;2023-03-31T04:01:18;96973.11719;;;;
44734;BME280;30462;52.446;-1.930;2023-03-31T04:02:18;96969.28125;;;;
44734;BME280;30462;52.446;-1.930;2023-03-31T04:03:18;96966.89063;;;;
44734;BME280;30462;52.446;-1.930;2023-03-31T04:04:18;96967.91016;;;;
44734;BME280;30462;52.446;-1.930;2023-03-31T04:05:18;96962.23828;;;;
44734;BME280;30462;52.446;-1.930;2023-03-31T04:06:17;96966.92969;;;;
44734;BME280;30462;52.446;-1.930;2023-03-31T04:07:18;96962.07813;;;;
44734;BME280;30462;52.446;-1.930;2023-03-31T04:08:18;96958.76953;;;;
44734;BME280;30462;52.446;-1.930;2023-03-31T04:09:18;96956.76953;;;;
44734;BME280;30462;52.446;-1.930;2023-03-31T04:10:18;96953.91797;;;;
44734;BME280;30462;52.446;-1.930;2023-03-31T04:11:18;96954.53906;;;;
44734;BME280;30462;52.446;-1.930;2023-03-31T04:12:18;96949.52734;;;;
44734;BME280;30462;52.446;-1.930;2023-03-31T04:13:18;96947.36719;;;;
44734;BME280;30462;52.446;-1.930;2023-03-31T04:14:18;96946.41406;;;;
44734;BME280;30462;52.446;-1.930;2023-03-31T04:15:18;96944.61328;;;;
44734;BME280;30462;52.446;-1.930;2023-03-31T04:16:18;96940.84375;;;;
44734;BME280;30462;52.446;-1.930;2023-03-31T04:17:17;96941.23828;;;;
44734;BME280;30462;52.446;-1.930;2023-03-31T04:18:18;96939.89453;;;;
44734;BME280;30462;52.446;-1.930;2023-03-31T04:19:18;96938.68359;;;;
44734;BME280;30462;52.446;-1.930;2023-03-31T04:20:19;96935.67188;;;;
44734;BME280;30462;52.446;-1.930;2023-03-31T04:21:18;96935.47266;;;;
44734;BME280;30462;52.446;-1.930;2023-03-31T04:22:18;96936.91406;;;;
44734;BME280;30462;52.446;-1.930;2023-03-31T04:23:18;96935.14453;;;;
44734;BME280;30462;52.446;-1.930;2023-03-31T04:24:18;96931.28125;;;;
44734;BME280;30462;52.446;-1.930;2023-03-31T04:25:18;96933.86719;;;;
44734;BME280;30462;52.446;-1.930;2023-03-31T04:26:18;96932.29297;;;;
44734;BME280;30462;52.446;-1.930;2023-03-31T04:27:17;96929.25;;;;
44734;BME280;30462;52.446;-1.930;2023-03-31T04:28:18;96927.3125;;;;
44734;BME280;30462;52.446;-1.930;2023-03-31T04:29:18;96926.46484;;;;
44734;BME280;30462;52.446;-1.930;2023-03-31T04:30:18;96924.07031;;;;
44734;BME280;30462;52.446;-1.930;2023-03-31T04:31:18;96925.21875;;;;
44734;BME280;30462;52.446;-1.930;2023-03-31T04:32:18;96922.14063;;;;
44734;BME280;30462;52.446;-1.930;2023-03-31T04:33:17;96918.69922;;;;
44734;BME280;30462;52.446;-1.930;2023-03-31T04:34:18;96918.5;;;;
44734;BME280;30462;52.446;-1.930;2023-03-31T04:35:18;96917.05859;;;;
44734;BME280;30462;52.446;-1.930;2023-03-31T04:36:18;96922.13672;;;;
44734;BME280;30462;52.446;-1.930;2023-03-31T04:37:18;96921.31641;;;;
44734;BME280;30462;52.446;-1.930;2023-03-31T04:38:18;96920.09766;;;;
44734;BME280;30462;52.446;-1.930;2023-03-31T04:39:18;96916.42578;;;;
44734;BME280;30462;52.446;-1.930;2023-03-31T04:40:18;96914.91797;;;;
44734;BME280;30462;52.446;-1.930;2023-03-31T04:41:18;96915.01953;;;;
44734;BME280;30462;52.446;-1.930;2023-03-31T04:42:18;96914.59375;;;;
44734;BME280;30462;52.446;-1.930;2023-03-31T04:43:19;96908.99219;;;;
44734;BME280;30462;52.446;-1.930;2023-03-31T04:44:18;96907.26172;;;;
44734;BME280;30462;52.446;-1.930;2023-03-31T04:45:18;96905.0625;;;;
44734;BME280;30462;52.446;-1.930;2023-03-31T04:46:18;96904.46875;;;;
44734;BME280;30462;52.446;-1.930;2023-03-31T04:47:17;96898.28516;;;;
44734;BME280;30462;52.446;-1.930;2023-03-31T04:48:18;96899.26563;;;;
44734;BME280;30462;52.446;-1.930;2023-03-31T04:49:18;96894.84375;;;;
44734;BME280;30462;52.446;-1.930;2023-03-31T04:50:18;96895.92969;;;;
44734;BME280;30462;52.446;-1.930;2023-03-31T04:51:18;96890.42969;;;;
44734;BME280;30462;52.446;-1.930;2023-03-31T04:52:18;96888.88672;;;;
44734;BME280;30462;52.446;-1.930;2023-03-31T04:53:18;96886.59375;;;;
44734;BME280;30462;52.446;-1.930;2023-03-31T04:54:17;96890.36328;;;;
44734;BME280;30462;52.446;-1.930;2023-03-31T04:55:17;96888.79297;;;;
44734;BME280;30462;52.446;-1.930;2023-03-31T04:56:18;96884.92578;;;;
44734;BME280;30462;52.446;-1.930;2023-03-31T04:57:18;96886.5;;;;
44734;BME280;30462;52.446;-1.930;2023-03-31T04:58:18;96881.16406;;;;
44734;BME280;30462;52.446;-1.930;2023-03-31T04:59:18;96881.29297;;;;
44734;BME280;30462;52.446;-1.930;2023-03-31T05:00:19;96874.17969;;;;
44734;BME280;30462;52.446;-1.930;2023-03-31T05:01:17;96873.13281;;;;
44734;BME280;30462;52.446;-1.930;2023-03-31T05:02:18;96874.83203;;;;
44734;BME280;30462;52.446;-1.930;2023-03-31T05:03:18;96870.875;;;;
44734;BME280;30462;52.446;-1.930;2023-03-31T05:04:18;96874.70313;;;;
44734;BME280;30462;52.446;-1.930;2023-03-31T05:05:19;96868.32422;;;;
44734;BME280;30462;52.446;-1.930;2023-03-31T05:06:18;96867.96484;;;;
44734;BME280;30462;52.446;-1.930;2023-03-31T05:07:18;96863.48047;;;;
44734;BME280;30462;52.446;-1.930;2023-03-31T05:08:18;96864.85547;;;;
44734;BME280;30462;52.446;-1.930;2023-03-31T05:09:18;96860.66406;;;;
44734;BME280;30462;52.446;-1.930;2023-03-31T05:10:18;96861.73828;;;;
44734;BME280;30462;52.446;-1.930;2023-03-31T05:11:18;96861.96484;;;;
44734;BME280;30462;52.446;-1.930;2023-03-31T05:12:18;96857.77734;;;;
44734;BME280;30462;52.446;-1.930;2023-03-31T05:13:18;96857.64453;;;;
44734;BME280;30462;52.446;-1.930;2023-03-31T05:14:18;96857.875;;;;
44734;BME280;30462;52.446;-1.930;2023-03-31T05:15:18;96851.71484;;;;
44734;BME280;30462;52.446;-1.930;2023-03-31T05:16:18;96848.57422;;;;
44734;BME280;30462;52.446;-1.930;2023-03-31T05:17:18;96853.58594;;;;
44734;BME280;30462;52.446;-1.930;2023-03-31T05:18:18;96851.98047;;;;
44734;BME280;30462;52.446;-1.930;2023-03-31T05:19:18;96852.07813;;;;
44734;BME280;30462;52.446;-1.930;2023-03-31T05:20:18;96854.33594;;;;
44734;BME280;30462;52.446;-1.930;2023-03-31T05:21:18;96856.19922;;;;
44734;BME280;30462;52.446;-1.930;2023-03-31T05:22:18;96854.04688;;;;
44734;BME280;30462;52.446;-1.930;2023-03-31T05:23:18;96854.86328;;;;
44734;BME280;30462;52.446;-1.930;2023-03-31T05:24:18;96855.03125;;;;
44734;BME280;30462;52.446;-1.930;2023-03-31T05:25:18;96856.70313;;;;
44734;BME280;30462;52.446;-1.930;2023-03-31T05:26:18;96853.65234;;;;
44734;BME280;30462;52.446;-1.930;2023-03-31T05:27:18;96855.8125;;;;
44734;BME280;30462;52.446;-1.930;2023-03-31T05:28:18;96851.84375;;;;
44734;BME280;30462;52.446;-1.930;2023-03-31T05:29:18;96851.77734;;;;
44734;BME280;30462;52.446;-1.930;2023-03-31T05:30:18;96855.48047;;;;
44734;BME280;30462;52.446;-1.930;2023-03-31T05:31:18;96853.87891;;;;
44734;BME280;30462;52.446;-1.930;2023-03-31T05:32:18;96850.54297;;;;
44734;BME280;30462;52.446;-1.930;2023-03-31T05:33:18;96850.96484;;;;
44734;BME280;30462;52.446;-1.930;2023-03-31T05:34:18;96851.58984;;;;
44734;BME280;30462;52.446;-1.930;2023-03-31T05:35:18;96852.93359;;;;
44734;BME280;30462;52.446;-1.930;2023-03-31T05:36:18;96852.24609;;;;
44734;BME280;30462;52.446;-1.930;2023-03-31T05:37:18;96851.35547;;;;
44734;BME280;30462;52.446;-1.930;2023-03-31T05:38:18;96849.68359;;;;
44734;BME280;30462;52.446;-1.930;2023-03-31T05:39:18;96849.16016;;;;
44734;BME280;30462;52.446;-1.930;2023-03-31T05:40:18;96850.89844;;;;
44734;BME280;30462;52.446;-1.930;2023-03-31T05:41:18;96850.11328;;;;
44734;BME280;30462;52.446;-1.930;2023-03-31T05:42:18;96847.82031;;;;
44734;BME280;30462;52.446;-1.930;2023-03-31T05:43:18;96846.44531;;;;
44734;BME280;30462;52.446;-1.930;2023-03-31T05:44:18;96843.89063;;;;
44734;BME280;30462;52.446;-1.930;2023-03-31T05:45:18;96845.10938;;;;
44734;BME280;30462;52.446;-1.930;2023-03-31T05:46:18;96846.34766;;;;
44734;BME280;30462;52.446;-1.930;2023-03-31T05:47:18;96843.98828;;;;
44734;BME280;30462;52.446;-1.930;2023-03-31T05:48:18;96845.55859;;;;
44734;BME280;30462;52.446;-1.930;2023-03-31T05:49:18;96843.75781;;;;
44734;BME280;30462;52.446;-1.930;2023-03-31T05:50:18;96845.14063;;;;
44734;BME280;30462;52.446;-1.930;2023-03-31T05:51:18;96845.46484;;;;
44734;BME280;30462;52.446;-1.930;2023-03-31T05:52:18;96841.79297;;;;
44734;BME280;30462;52.446;-1.930;2023-03-31T05:53:18;96841.55859;;;;
44734;BME280;30462;52.446;-1.930;2023-03-31T05:54:18;96843.49219;;;;
44734;BME280;30462;52.446;-1.930;2023-03-31T05:55:18;96841.03906;;;;
44734;BME280;30462;52.446;-1.930;2023-03-31T05:56:18;96847.15625;;;;
44734;BME280;30462;52.446;-1.930;2023-03-31T05:57:18;96847.51953;;;;
44734;BME280;30462;52.446;-1.930;2023-03-31T05:58:18;96845.36328;;;;
44734;BME280;30462;52.446;-1.930;2023-03-31T05:59:18;96841.88672;;;;
44734;BME280;30462;52.446;-1.930;2023-03-31T06:00:18;96842.21875;;;;
44734;BME280;30462;52.446;-1.930;2023-03-31T06:01:18;96841.46875;;;;
44734;BME280;30462;52.446;-1.930;2023-03-31T06:02:18;96843.13281;;;;
44734;BME280;30462;52.446;-1.930;2023-03-31T06:03:18;96844.17578;;;;
44734;BME280;30462;52.446;-1.930;2023-03-31T06:04:18;96845.32031;;;;
44734;BME280;30462;52.446;-1.930;2023-03-31T06:05:18;96844.30859;;;;
44734;BME280;30462;52.446;-1.930;2023-03-31T06:06:18;96844.94531;;;;
44734;BME280;30462;52.446;-1.930;2023-03-31T06:07:18;96844.64844;;;;
44734;BME280;30462;52.446;-1.930;2023-03-31T06:08:18;96843.40234;;;;
44734;BME280;30462;52.446;-1.930;2023-03-31T06:09:18;96842.12109;;;;
44734;BME280;30462;52.446;-1.930;2023-03-31T06:10:18;96846.40625;;;;
44734;BME280;30462;52.446;-1.930;2023-03-31T06:11:19;96842.78125;;;;
44734;BME280;30462;52.446;-1.930;2023-03-31T06:12:18;96841.99609;;;;
44734;BME280;30462;52.446;-1.930;2023-03-31T06:13:18;96841.40234;;;;
44734;BME280;30462;52.446;-1.930;2023-03-31T06:14:18;96842.08594;;;;
44734;BME280;30462;52.446;-1.930;2023-03-31T06:15:18;96842.17969;;;;
44734;BME280;30462;52.446;-1.930;2023-03-31T06:16:18;96843.71875;;;;
44734;BME280;30462;52.446;-1.930;2023-03-31T06:17:18;96841.32422;;;;
44734;BME280;30462;52.446;-1.930;2023-03-31T06:18:18;96842.36719;;;;
44734;BME280;30462;52.446;-1.930;2023-03-31T06:19:18;96842.82031;;;;
44734;BME280;30462;52.446;-1.930;2023-03-31T06:20:18;96841.08203;;;;
44734;BME280;30462;52.446;-1.930;2023-03-31T06:21:18;96839.83594;;;;
44734;BME280;30462;52.446;-1.930;2023-03-31T06:22:18;96843.78906;;;;